sensor_id;sensor_type;location;lat;lon;timestamp;P1;durP1;ratioP1;P2;durP2;ratioP2
3004;SDS011;1512;51.486;6.610;2023-07-31T00:03:45;7.50;;;3.97;;
3004;SDS011;1512;51.486;6.610;2023-07-31T00:07:54;5.50;;;4.30;;
3004;SDS011;1512;51.486;6.610;2023-07-31T00:12:03;7.77;;;5.17;;
3004;SDS011;1512;51.486;6.610;2023-07-31T00:16:12;7.47;;;4.20;;
3004;SDS011;1512;51.486;6.610;2023-07-31T00:20:21;6.27;;;4.63;;
3004;SDS011;1512;51.486;6.610;2023-07-31T00:24:29;11.00;;;5.00;;
3004;SDS011;1512;51.486;6.610;2023-07-31T00:28:38;14.10;;;5.70;;
3004;SDS011;1512;51.486;6.610;2023-07-31T00:32:46;7.07;;;4.90;;
3004;SDS011;1512;51.486;6.610;2023-07-31T00:36:55;7.63;;;5.40;;
3004;SDS011;1512;51.486;6.610;2023-07-31T00:41:04;10.43;;;5.80;;
3004;SDS011;1512;51.486;6.610;2023-07-31T00:45:12;6.87;;;4.50;;
3004;SDS011;1512;51.486;6.610;2023-07-31T00:49:21;6.90;;;4.97;;
3004;SDS011;1512;51.486;6.610;2023-07-31T00:53:30;10.47;;;4.93;;
3004;SDS011;1512;51.486;6.610;2023-07-31T00:57:39;12.28;;;5.25;;
3004;SDS011;1512;51.486;6.610;2023-07-31T01:01:50;9.03;;;4.70;;
3004;SDS011;1512;51.486;6.610;2023-07-31T01:10:34;7.10;;;4.63;;
3004;SDS011;1512;51.486;6.610;2023-07-31T01:14:54;8.20;;;4.63;;
3004;SDS011;1512;51.486;6.610;2023-07-31T01:19:10;8.90;;;4.90;;
3004;SDS011;1512;51.486;6.610;2023-07-31T01:27:50;8.00;;;3.87;;
3004;SDS011;1512;51.486;6.610;2023-07-31T01:31:56;10.20;;;4.30;;
3004;SDS011;1512;51.486;6.610;2023-07-31T01:36:08;5.33;;;4.10;;
3004;SDS011;1512;51.486;6.610;2023-07-31T01:40:18;7.67;;;4.47;;
3004;SDS011;1512;51.486;6.610;2023-07-31T01:44:26;6.53;;;4.00;;
3004;SDS011;1512;51.486;6.610;2023-07-31T01:48:35;5.93;;;4.00;;
3004;SDS011;1512;51.486;6.610;2023-07-31T01:52:44;5.70;;;3.90;;
3004;SDS011;1512;51.486;6.610;2023-07-31T01:56:52;5.17;;;4.10;;
3004;SDS011;1512;51.486;6.610;2023-07-31T02:01:01;10.70;;;4.80;;
3004;SDS011;1512;51.486;6.610;2023-07-31T02:05:10;7.20;;;4.10;;
3004;SDS011;1512;51.486;6.610;2023-07-31T02:09:18;13.00;;;4.83;;
3004;SDS011;1512;51.486;6.610;2023-07-31T02:13:27;8.13;;;5.10;;
3004;SDS011;1512;51.486;6.610;2023-07-31T02:17:35;7.00;;;4.77;;
3004;SDS011;1512;51.486;6.610;2023-07-31T02:21:44;7.73;;;3.83;;
3004;SDS011;1512;51.486;6.610;2023-07-31T02:30:21;8.43;;;6.17;;
3004;SDS011;1512;51.486;6.610;2023-07-31T02:34:29;6.33;;;4.40;;
3004;SDS011;1512;51.486;6.610;2023-07-31T02:38:38;8.37;;;4.83;;
3004;SDS011;1512;51.486;6.610;2023-07-31T02:42:46;9.10;;;4.97;;
3004;SDS011;1512;51.486;6.610;2023-07-31T02:46:55;11.13;;;4.83;;
3004;SDS011;1512;51.486;6.610;2023-07-31T02:51:04;13.47;;;5.40;;
3004;SDS011;1512;51.486;6.610;2023-07-31T02:55:12;14.67;;;5.60;;
3004;SDS011;1512;51.486;6.610;2023-07-31T02:59:21;7.17;;;4.73;;
3004;SDS011;1512;51.486;6.610;2023-07-31T03:03:30;11.97;;;4.67;;
3004;SDS011;1512;51.486;6.610;2023-07-31T03:07:38;8.53;;;5.00;;
3004;SDS011;1512;51.486;6.610;2023-07-31T03:11:47;7.30;;;4.45;;
3004;SDS011;1512;51.486;6.610;2023-07-31T03:15:56;9.30;;;4.40;;
3004;SDS011;1512;51.486;6.610;2023-07-31T03:20:04;10.27;;;4.10;;
3004;SDS011;1512;51.486;6.610;2023-07-31T03:24:13;7.57;;;4.87;;
3004;SDS011;1512;51.486;6.610;2023-07-31T03:28:22;6.57;;;4.40;;
3004;SDS011;1512;51.486;6.610;2023-07-31T03:32:31;5.40;;;4.47;;
3004;SDS011;1512;51.486;6.610;2023-07-31T03:36:40;10.60;;;5.30;;
3004;SDS011;1512;51.486;6.610;2023-07-31T03:40:48;6.20;;;3.67;;
3004;SDS011;1512;51.486;6.610;2023-07-31T03:44:57;6.03;;;4.10;;
3004;SDS011;1512;51.486;6.610;2023-07-31T03:49:05;9.40;;;5.30;;
3004;SDS011;1512;51.486;6.610;2023-07-31T03:53:14;10.73;;;5.83;;
3004;SDS011;1512;51.486;6.610;2023-07-31T03:57:23;6.43;;;4.83;;
3004;SDS011;1512;51.486;6.610;2023-07-31T04:01:31;8.33;;;4.93;;
3004;SDS011;1512;51.486;6.610;2023-07-31T04:05:40;7.50;;;5.10;;
3004;SDS011;1512;51.486;6.610;2023-07-31T04:09:49;8.73;;;4.70;;
3004;SDS011;1512;51.486;6.610;2023-07-31T04:13:57;5.63;;;3.87;;
3004;SDS011;1512;51.486;6.610;2023-07-31T04:18:06;9.70;;;4.97;;
3004;SDS011;1512;51.486;6.610;2023-07-31T04:22:14;4.63;;;4.10;;
3004;SDS011;1512;51.486;6.610;2023-07-31T04:26:23;6.80;;;5.00;;
3004;SDS011;1512;51.486;6.610;2023-07-31T04:30:32;8.37;;;4.03;;
3004;SDS011;1512;51.486;6.610;2023-07-31T04:34:40;5.33;;;4.20;;
3004;SDS011;1512;51.486;6.610;2023-07-31T04:38:49;7.77;;;4.43;;
3004;SDS011;1512;51.486;6.610;2023-07-31T04:42:58;10.27;;;5.57;;
3004;SDS011;1512;51.486;6.610;2023-07-31T04:47:06;9.60;;;4.13;;
3004;SDS011;1512;51.486;6.610;2023-07-31T04:51:15;5.63;;;4.87;;
3004;SDS011;1512;51.486;6.610;2023-07-31T04:55:23;7.63;;;4.97;;
3004;SDS011;1512;51.486;6.610;2023-07-31T04:59:32;10.90;;;5.80;;
3004;SDS011;1512;51.486;6.610;2023-07-31T05:03:41;8.70;;;4.37;;
3004;SDS011;1512;51.486;6.610;2023-07-31T05:07:49;11.70;;;5.50;;
3004;SDS011;1512;51.486;6.610;2023-07-31T05:11:58;6.53;;;4.90;;
3004;SDS011;1512;51.486;6.610;2023-07-31T05:16:07;6.63;;;4.77;;
3004;SDS011;1512;51.486;6.610;2023-07-31T05:20:15;6.50;;;4.00;;
3004;SDS011;1512;51.486;6.610;2023-07-31T05:24:24;7.33;;;4.83;;
3004;SDS011;1512;51.486;6.610;2023-07-31T05:28:34;6.33;;;4.40;;
3004;SDS011;1512;51.486;6.610;2023-07-31T05:32:43;6.23;;;4.33;;
3004;SDS011;1512;51.486;6.610;2023-07-31T05:36:52;6.90;;;4.87;;
3004;SDS011;1512;51.486;6.610;2023-07-31T05:41:01;5.63;;;4.80;;
3004;SDS011;1512;51.486;6.610;2023-07-31T05:45:10;7.63;;;5.20;;
3004;SDS011;1512;51.486;6.610;2023-07-31T05:49:20;8.97;;;5.37;;
3004;SDS011;1512;51.486;6.610;2023-07-31T05:53:28;6.70;;;4.77;;
3004;SDS011;1512;51.486;6.610;2023-07-31T05:57:37;8.17;;;4.67;;
3004;SDS011;1512;51.486;6.610;2023-07-31T06:01:45;9.83;;;4.70;;
3004;SDS011;1512;51.486;6.610;2023-07-31T06:05:54;9.33;;;5.40;;
3004;SDS011;1512;51.486;6.610;2023-07-31T06:10:03;7.57;;;4.87;;
3004;SDS011;1512;51.486;6.610;2023-07-31T06:14:12;6.27;;;5.53;;
3004;SDS011;1512;51.486;6.610;2023-07-31T06:18:21;9.07;;;5.80;;
3004;SDS011;1512;51.486;6.610;2023-07-31T06:22:30;6.30;;;4.70;;
3004;SDS011;1512;51.486;6.610;2023-07-31T06:26:39;9.47;;;5.27;;
3004;SDS011;1512;51.486;6.610;2023-07-31T06:30:48;8.33;;;4.90;;
3004;SDS011;1512;51.486;6.610;2023-07-31T06:34:57;6.87;;;5.37;;
3004;SDS011;1512;51.486;6.610;2023-07-31T06:39:05;5.73;;;4.43;;
3004;SDS011;1512;51.486;6.610;2023-07-31T06:43:14;5.83;;;4.50;;
3004;SDS011;1512;51.486;6.610;2023-07-31T06:47:23;7.10;;;4.67;;
3004;SDS011;1512;51.486;6.610;2023-07-31T06:55:59;5.33;;;4.20;;
3004;SDS011;1512;51.486;6.610;2023-07-31T07:00:08;10.10;;;4.53;;
3004;SDS011;1512;51.486;6.610;2023-07-31T07:04:17;6.60;;;4.60;;
3004;SDS011;1512;51.486;6.610;2023-07-31T07:08:26;5.33;;;4.20;;
3004;SDS011;1512;51.486;6.610;2023-07-31T07:12:34;9.13;;;5.00;;
3004;SDS011;1512;51.486;6.610;2023-07-31T07:16:43;7.70;;;4.97;;
3004;SDS011;1512;51.486;6.610;2023-07-31T07:20:52;6.13;;;4.63;;
3004;SDS011;1512;51.486;6.610;2023-07-31T07:25:04;6.33;;;5.13;;
3004;SDS011;1512;51.486;6.610;2023-07-31T07:29:14;7.17;;;4.50;;
3004;SDS011;1512;51.486;6.610;2023-07-31T07:33:23;5.70;;;4.60;;
3004;SDS011;1512;51.486;6.610;2023-07-31T07:37:31;5.53;;;4.10;;
3004;SDS011;1512;51.486;6.610;2023-07-31T07:41:40;5.60;;;4.17;;
3004;SDS011;1512;51.486;6.610;2023-07-31T07:45:49;6.55;;;3.80;;
3004;SDS011;1512;51.486;6.610;2023-07-31T07:49:58;6.00;;;4.07;;
3004;SDS011;1512;51.486;6.610;2023-07-31T07:54:06;5.40;;;3.50;;
3004;SDS011;1512;51.486;6.610;2023-07-31T07:58:15;4.10;;;3.33;;
3004;SDS011;1512;51.486;6.610;2023-07-31T08:02:24;3.43;;;3.13;;
3004;SDS011;1512;51.486;6.610;2023-07-31T08:06:32;5.10;;;3.70;;
3004;SDS011;1512;51.486;6.610;2023-07-31T08:10:41;5.73;;;3.90;;
3004;SDS011;1512;51.486;6.610;2023-07-31T08:14:51;4.40;;;3.67;;
3004;SDS011;1512;51.486;6.610;2023-07-31T08:18:59;3.43;;;3.13;;
3004;SDS011;1512;51.486;6.610;2023-07-31T08:23:08;5.00;;;3.57;;
3004;SDS011;1512;51.486;6.610;2023-07-31T08:27:17;6.20;;;3.70;;
3004;SDS011;1512;51.486;6.610;2023-07-31T08:31:26;5.00;;;3.97;;
3004;SDS011;1512;51.486;6.610;2023-07-31T08:35:36;4.23;;;3.57;;
3004;SDS011;1512;51.486;6.610;2023-07-31T08:39:44;6.47;;;4.27;;
3004;SDS011;1512;51.486;6.610;2023-07-31T08:43:53;3.90;;;3.50;;
3004;SDS011;1512;51.486;6.610;2023-07-31T08:48:04;5.30;;;4.20;;
3004;SDS011;1512;51.486;6.610;2023-07-31T08:52:13;4.80;;;3.40;;
3004;SDS011;1512;51.486;6.610;2023-07-31T08:56:22;7.10;;;3.77;;
3004;SDS011;1512;51.486;6.610;2023-07-31T09:00:32;7.80;;;4.20;;
3004;SDS011;1512;51.486;6.610;2023-07-31T09:04:41;4.40;;;3.30;;
3004;SDS011;1512;51.486;6.610;2023-07-31T09:08:49;6.17;;;4.10;;
3004;SDS011;1512;51.486;6.610;2023-07-31T09:12:58;6.70;;;4.53;;
3004;SDS011;1512;51.486;6.610;2023-07-31T09:17:07;5.20;;;4.37;;
3004;SDS011;1512;51.486;6.610;2023-07-31T09:21:16;5.90;;;4.10;;
3004;SDS011;1512;51.486;6.610;2023-07-31T09:25:25;4.27;;;3.50;;
3004;SDS011;1512;51.486;6.610;2023-07-31T09:29:34;4.40;;;3.57;;
3004;SDS011;1512;51.486;6.610;2023-07-31T09:33:55;3.93;;;3.60;;
3004;SDS011;1512;51.486;6.610;2023-07-31T09:38:05;4.43;;;3.77;;
3004;SDS011;1512;51.486;6.610;2023-07-31T09:42:23;7.13;;;3.53;;
3004;SDS011;1512;51.486;6.610;2023-07-31T09:46:35;4.50;;;3.80;;
3004;SDS011;1512;51.486;6.610;2023-07-31T09:50:46;5.77;;;3.97;;
3004;SDS011;1512;51.486;6.610;2023-07-31T09:54:55;4.37;;;3.40;;
3004;SDS011;1512;51.486;6.610;2023-07-31T09:59:04;4.63;;;3.60;;
3004;SDS011;1512;51.486;6.610;2023-07-31T10:03:13;7.73;;;3.80;;
3004;SDS011;1512;51.486;6.610;2023-07-31T10:07:24;3.67;;;3.20;;
3004;SDS011;1512;51.486;6.610;2023-07-31T10:11:38;5.50;;;3.67;;
3004;SDS011;1512;51.486;6.610;2023-07-31T10:15:52;5.33;;;4.20;;
3004;SDS011;1512;51.486;6.610;2023-07-31T10:20:02;8.03;;;4.57;;
3004;SDS011;1512;51.486;6.610;2023-07-31T10:24:11;5.97;;;4.07;;
3004;SDS011;1512;51.486;6.610;2023-07-31T10:28:20;4.60;;;3.80;;
3004;SDS011;1512;51.486;6.610;2023-07-31T10:32:30;7.43;;;5.07;;
3004;SDS011;1512;51.486;6.610;2023-07-31T10:36:40;9.23;;;5.73;;
3004;SDS011;1512;51.486;6.610;2023-07-31T10:40:48;10.13;;;4.97;;
3004;SDS011;1512;51.486;6.610;2023-07-31T10:44:58;5.63;;;4.20;;
3004;SDS011;1512;51.486;6.610;2023-07-31T10:49:09;5.80;;;4.60;;
3004;SDS011;1512;51.486;6.610;2023-07-31T10:53:24;4.50;;;3.50;;
3004;SDS011;1512;51.486;6.610;2023-07-31T10:57:39;5.03;;;4.53;;
3004;SDS011;1512;51.486;6.610;2023-07-31T11:01:55;4.37;;;3.70;;
3004;SDS011;1512;51.486;6.610;2023-07-31T11:06:04;5.23;;;3.97;;
3004;SDS011;1512;51.486;6.610;2023-07-31T11:10:15;4.73;;;3.90;;
3004;SDS011;1512;51.486;6.610;2023-07-31T11:14:24;4.63;;;3.80;;
3004;SDS011;1512;51.486;6.610;2023-07-31T11:18:33;3.97;;;3.60;;
3004;SDS011;1512;51.486;6.610;2023-07-31T11:22:42;5.97;;;4.30;;
3004;SDS011;1512;51.486;6.610;2023-07-31T11:26:52;5.57;;;3.87;;
3004;SDS011;1512;51.486;6.610;2023-07-31T11:31:01;3.77;;;3.37;;
3004;SDS011;1512;51.486;6.610;2023-07-31T11:35:13;7.13;;;3.73;;
3004;SDS011;1512;51.486;6.610;2023-07-31T11:39:22;4.23;;;3.83;;
3004;SDS011;1512;51.486;6.610;2023-07-31T11:43:31;7.90;;;4.20;;
3004;SDS011;1512;51.486;6.610;2023-07-31T11:47:40;4.47;;;3.80;;
3004;SDS011;1512;51.486;6.610;2023-07-31T11:51:48;4.60;;;4.00;;
3004;SDS011;1512;51.486;6.610;2023-07-31T11:56:00;3.60;;;3.23;;
3004;SDS011;1512;51.486;6.610;2023-07-31T12:00:11;5.30;;;4.23;;
3004;SDS011;1512;51.486;6.610;2023-07-31T12:04:21;6.20;;;3.90;;
3004;SDS011;1512;51.486;6.610;2023-07-31T12:08:31;4.80;;;4.00;;
3004;SDS011;1512;51.486;6.610;2023-07-31T12:12:39;4.63;;;3.90;;
3004;SDS011;1512;51.486;6.610;2023-07-31T12:16:48;7.67;;;4.33;;
3004;SDS011;1512;51.486;6.610;2023-07-31T12:21:06;3.63;;;3.33;;
3004;SDS011;1512;51.486;6.610;2023-07-31T12:25:18;4.20;;;3.80;;
3004;SDS011;1512;51.486;6.610;2023-07-31T12:29:33;3.83;;;3.33;;
3004;SDS011;1512;51.486;6.610;2023-07-31T12:33:45;4.70;;;4.00;;
3004;SDS011;1512;51.486;6.610;2023-07-31T12:37:56;8.00;;;4.07;;
3004;SDS011;1512;51.486;6.610;2023-07-31T12:42:06;3.93;;;3.50;;
3004;SDS011;1512;51.486;6.610;2023-07-31T12:46:15;4.40;;;3.43;;
3004;SDS011;1512;51.486;6.610;2023-07-31T12:50:24;5.93;;;3.70;;
3004;SDS011;1512;51.486;6.610;2023-07-31T12:54:32;3.37;;;3.07;;
3004;SDS011;1512;51.486;6.610;2023-07-31T12:58:42;4.90;;;3.60;;
3004;SDS011;1512;51.486;6.610;2023-07-31T13:02:51;4.30;;;3.37;;
3004;SDS011;1512;51.486;6.610;2023-07-31T13:06:59;6.17;;;4.00;;
3004;SDS011;1512;51.486;6.610;2023-07-31T13:11:08;5.90;;;3.67;;
3004;SDS011;1512;51.486;6.610;2023-07-31T13:15:17;4.30;;;3.70;;
3004;SDS011;1512;51.486;6.610;2023-07-31T13:19:25;5.00;;;3.60;;
3004;SDS011;1512;51.486;6.610;2023-07-31T13:23:34;4.23;;;3.57;;
3004;SDS011;1512;51.486;6.610;2023-07-31T13:27:43;4.37;;;3.77;;
3004;SDS011;1512;51.486;6.610;2023-07-31T13:31:52;4.67;;;4.10;;
3004;SDS011;1512;51.486;6.610;2023-07-31T13:36:01;4.20;;;3.20;;
3004;SDS011;1512;51.486;6.610;2023-07-31T13:40:10;5.85;;;3.50;;
3004;SDS011;1512;51.486;6.610;2023-07-31T13:44:18;5.40;;;3.60;;
3004;SDS011;1512;51.486;6.610;2023-07-31T13:48:27;5.17;;;4.10;;
3004;SDS011;1512;51.486;6.610;2023-07-31T13:52:36;5.80;;;4.33;;
3004;SDS011;1512;51.486;6.610;2023-07-31T13:56:44;5.53;;;4.67;;
3004;SDS011;1512;51.486;6.610;2023-07-31T14:00:53;13.60;;;5.23;;
3004;SDS011;1512;51.486;6.610;2023-07-31T14:05:01;7.23;;;5.67;;
3004;SDS011;1512;51.486;6.610;2023-07-31T14:09:10;4.47;;;3.70;;
3004;SDS011;1512;51.486;6.610;2023-07-31T14:13:19;6.70;;;4.40;;
3004;SDS011;1512;51.486;6.610;2023-07-31T14:17:27;6.63;;;4.30;;
3004;SDS011;1512;51.486;6.610;2023-07-31T14:21:36;8.60;;;4.67;;
3004;SDS011;1512;51.486;6.610;2023-07-31T14:25:45;7.67;;;4.83;;
3004;SDS011;1512;51.486;6.610;2023-07-31T14:29:55;5.40;;;4.13;;
3004;SDS011;1512;51.486;6.610;2023-07-31T14:34:03;5.63;;;4.00;;
3004;SDS011;1512;51.486;6.610;2023-07-31T14:38:12;7.10;;;5.10;;
3004;SDS011;1512;51.486;6.610;2023-07-31T14:42:21;7.97;;;4.60;;
3004;SDS011;1512;51.486;6.610;2023-07-31T14:46:29;5.33;;;4.80;;
3004;SDS011;1512;51.486;6.610;2023-07-31T14:50:38;8.60;;;4.40;;
3004;SDS011;1512;51.486;6.610;2023-07-31T14:54:46;5.70;;;4.12;;
3004;SDS011;1512;51.486;6.610;2023-07-31T14:58:55;8.97;;;4.83;;
3004;SDS011;1512;51.486;6.610;2023-07-31T15:03:03;9.90;;;4.20;;
3004;SDS011;1512;51.486;6.610;2023-07-31T15:07:12;7.73;;;5.90;;
3004;SDS011;1512;51.486;6.610;2023-07-31T15:11:21;5.47;;;3.90;;
3004;SDS011;1512;51.486;6.610;2023-07-31T15:15:30;7.60;;;4.63;;
3004;SDS011;1512;51.486;6.610;2023-07-31T15:19:38;7.97;;;5.40;;
3004;SDS011;1512;51.486;6.610;2023-07-31T15:23:47;8.33;;;4.97;;
3004;SDS011;1512;51.486;6.610;2023-07-31T15:27:56;4.97;;;4.07;;
3004;SDS011;1512;51.486;6.610;2023-07-31T15:32:04;8.20;;;4.57;;
3004;SDS011;1512;51.486;6.610;2023-07-31T15:36:13;7.30;;;4.70;;
3004;SDS011;1512;51.486;6.610;2023-07-31T15:40:24;6.40;;;4.50;;
3004;SDS011;1512;51.486;6.610;2023-07-31T15:44:32;7.13;;;5.00;;
3004;SDS011;1512;51.486;6.610;2023-07-31T15:48:41;6.53;;;4.60;;
3004;SDS011;1512;51.486;6.610;2023-07-31T15:52:50;8.23;;;4.53;;
3004;SDS011;1512;51.486;6.610;2023-07-31T15:56:58;6.27;;;4.53;;
3004;SDS011;1512;51.486;6.610;2023-07-31T16:01:07;7.40;;;4.20;;
3004;SDS011;1512;51.486;6.610;2023-07-31T16:05:16;5.87;;;4.50;;
3004;SDS011;1512;51.486;6.610;2023-07-31T16:09:24;7.63;;;5.10;;
3004;SDS011;1512;51.486;6.610;2023-07-31T16:13:33;8.93;;;5.63;;
3004;SDS011;1512;51.486;6.610;2023-07-31T16:17:42;6.43;;;4.90;;
3004;SDS011;1512;51.486;6.610;2023-07-31T16:21:50;8.40;;;4.77;;
3004;SDS011;1512;51.486;6.610;2023-07-31T16:25:59;6.47;;;4.60;;
3004;SDS011;1512;51.486;6.610;2023-07-31T16:30:08;6.10;;;4.90;;
3004;SDS011;1512;51.486;6.610;2023-07-31T16:34:16;5.70;;;4.43;;
3004;SDS011;1512;51.486;6.610;2023-07-31T16:38:25;6.13;;;4.23;;
3004;SDS011;1512;51.486;6.610;2023-07-31T16:42:34;5.70;;;4.60;;
3004;SDS011;1512;51.486;6.610;2023-07-31T16:46:43;7.03;;;5.43;;
3004;SDS011;1512;51.486;6.610;2023-07-31T16:50:51;4.77;;;4.20;;
3004;SDS011;1512;51.486;6.610;2023-07-31T16:55:00;5.30;;;4.33;;
3004;SDS011;1512;51.486;6.610;2023-07-31T16:59:08;6.57;;;4.10;;
3004;SDS011;1512;51.486;6.610;2023-07-31T17:03:17;4.30;;;3.70;;
3004;SDS011;1512;51.486;6.610;2023-07-31T17:07:26;4.97;;;3.87;;
3004;SDS011;1512;51.486;6.610;2023-07-31T17:11:35;3.37;;;3.07;;
3004;SDS011;1512;51.486;6.610;2023-07-31T17:15:45;4.20;;;3.80;;
3004;SDS011;1512;51.486;6.610;2023-07-31T17:19:53;3.70;;;3.40;;
3004;SDS011;1512;51.486;6.610;2023-07-31T17:24:02;5.70;;;3.43;;
3004;SDS011;1512;51.486;6.610;2023-07-31T17:28:11;4.30;;;3.90;;
3004;SDS011;1512;51.486;6.610;2023-07-31T17:32:19;4.50;;;3.03;;
3004;SDS011;1512;51.486;6.610;2023-07-31T17:36:29;4.50;;;3.20;;
3004;SDS011;1512;51.486;6.610;2023-07-31T17:40:39;4.00;;;3.20;;
3004;SDS011;1512;51.486;6.610;2023-07-31T17:44:48;4.60;;;4.17;;
3004;SDS011;1512;51.486;6.610;2023-07-31T17:48:57;3.43;;;2.80;;
3004;SDS011;1512;51.486;6.610;2023-07-31T17:53:06;4.50;;;3.40;;
3004;SDS011;1512;51.486;6.610;2023-07-31T17:57:14;4.37;;;3.50;;
3004;SDS011;1512;51.486;6.610;2023-07-31T18:01:23;2.70;;;2.37;;
3004;SDS011;1512;51.486;6.610;2023-07-31T18:05:32;5.73;;;3.60;;
3004;SDS011;1512;51.486;6.610;2023-07-31T18:09:41;3.67;;;2.70;;
3004;SDS011;1512;51.486;6.610;2023-07-31T18:13:50;3.13;;;2.83;;
3004;SDS011;1512;51.486;6.610;2023-07-31T18:18:00;4.13;;;3.47;;
3004;SDS011;1512;51.486;6.610;2023-07-31T18:22:09;3.50;;;2.77;;
3004;SDS011;1512;51.486;6.610;2023-07-31T18:26:17;5.03;;;2.80;;
3004;SDS011;1512;51.486;6.610;2023-07-31T18:30:26;3.70;;;3.17;;
3004;SDS011;1512;51.486;6.610;2023-07-31T18:34:35;4.60;;;3.20;;
3004;SDS011;1512;51.486;6.610;2023-07-31T18:38:44;7.20;;;2.60;;
3004;SDS011;1512;51.486;6.610;2023-07-31T18:42:53;3.50;;;3.00;;
3004;SDS011;1512;51.486;6.610;2023-07-31T18:47:03;3.33;;;2.50;;
3004;SDS011;1512;51.486;6.610;2023-07-31T18:51:12;2.93;;;2.60;;
3004;SDS011;1512;51.486;6.610;2023-07-31T18:55:20;3.83;;;3.20;;
3004;SDS011;1512;51.486;6.610;2023-07-31T18:59:29;3.50;;;2.33;;
3004;SDS011;1512;51.486;6.610;2023-07-31T19:03:38;3.43;;;2.70;;
3004;SDS011;1512;51.486;6.610;2023-07-31T19:07:46;2.43;;;2.20;;
3004;SDS011;1512;51.486;6.610;2023-07-31T19:11:55;3.23;;;2.93;;
3004;SDS011;1512;51.486;6.610;2023-07-31T19:16:04;2.73;;;2.50;;
3004;SDS011;1512;51.486;6.610;2023-07-31T19:20:14;2.60;;;2.40;;
3004;SDS011;1512;51.486;6.610;2023-07-31T19:24:23;2.90;;;2.30;;
3004;SDS011;1512;51.486;6.610;2023-07-31T19:28:33;3.37;;;2.40;;
3004;SDS011;1512;51.486;6.610;2023-07-31T19:32:42;2.60;;;2.40;;
3004;SDS011;1512;51.486;6.610;2023-07-31T19:36:50;2.20;;;2.00;;
3004;SDS011;1512;51.486;6.610;2023-07-31T19:40:59;2.90;;;2.40;;
3004;SDS011;1512;51.486;6.610;2023-07-31T19:45:08;2.73;;;2.43;;
3004;SDS011;1512;51.486;6.610;2023-07-31T19:49:17;2.80;;;2.20;;
3004;SDS011;1512;51.486;6.610;2023-07-31T19:53:25;2.67;;;2.30;;
3004;SDS011;1512;51.486;6.610;2023-07-31T19:57:34;2.20;;;2.00;;
3004;SDS011;1512;51.486;6.610;2023-07-31T20:01:43;3.67;;;2.40;;
3004;SDS011;1512;51.486;6.610;2023-07-31T20:05:51;3.67;;;2.80;;
3004;SDS011;1512;51.486;6.610;2023-07-31T20:10:00;2.30;;;2.10;;
3004;SDS011;1512;51.486;6.610;2023-07-31T20:14:09;3.00;;;2.73;;
3004;SDS011;1512;51.486;6.610;2023-07-31T20:18:18;2.90;;;2.60;;
3004;SDS011;1512;51.486;6.610;2023-07-31T20:22:26;3.27;;;2.30;;
3004;SDS011;1512;51.486;6.610;2023-07-31T20:26:35;3.40;;;2.40;;
3004;SDS011;1512;51.486;6.610;2023-07-31T20:30:44;3.43;;;2.90;;
3004;SDS011;1512;51.486;6.610;2023-07-31T20:34:53;2.67;;;2.47;;
3004;SDS011;1512;51.486;6.610;2023-07-31T20:39:02;2.90;;;2.60;;
3004;SDS011;1512;51.486;6.610;2023-07-31T20:43:12;2.33;;;2.10;;
3004;SDS011;1512;51.486;6.610;2023-07-31T20:47:22;2.37;;;2.17;;
3004;SDS011;1512;51.486;6.610;2023-07-31T20:51:31;3.70;;;2.60;;
3004;SDS011;1512;51.486;6.610;2023-07-31T20:55:41;2.37;;;2.13;;
3004;SDS011;1512;51.486;6.610;2023-07-31T20:59:50;3.40;;;2.50;;
3004;SDS011;1512;51.486;6.610;2023-07-31T21:03:58;2.70;;;2.50;;
3004;SDS011;1512;51.486;6.610;2023-07-31T21:08:07;2.80;;;2.53;;
3004;SDS011;1512;51.486;6.610;2023-07-31T21:12:16;4.00;;;2.60;;
3004;SDS011;1512;51.486;6.610;2023-07-31T21:16:25;2.67;;;2.47;;
3004;SDS011;1512;51.486;6.610;2023-07-31T21:20:33;2.77;;;2.10;;
3004;SDS011;1512;51.486;6.610;2023-07-31T21:24:44;2.43;;;2.23;;
3004;SDS011;1512;51.486;6.610;2023-07-31T21:28:52;8.68;;;3.27;;
3004;SDS011;1512;51.486;6.610;2023-07-31T21:33:01;2.53;;;2.33;;
3004;SDS011;1512;51.486;6.610;2023-07-31T21:37:10;3.10;;;2.80;;
3004;SDS011;1512;51.486;6.610;2023-07-31T21:41:19;2.67;;;2.40;;
3004;SDS011;1512;51.486;6.610;2023-07-31T21:45:27;2.90;;;2.27;;
3004;SDS011;1512;51.486;6.610;2023-07-31T21:49:36;2.47;;;2.27;;
3004;SDS011;1512;51.486;6.610;2023-07-31T21:53:44;2.37;;;2.17;;
3004;SDS011;1512;51.486;6.610;2023-07-31T21:57:53;2.40;;;2.20;;
3004;SDS011;1512;51.486;6.610;2023-07-31T22:02:02;3.40;;;2.13;;
3004;SDS011;1512;51.486;6.610;2023-07-31T22:06:11;3.65;;;2.70;;
3004;SDS011;1512;51.486;6.610;2023-07-31T22:10:20;2.67;;;2.17;;
3004;SDS011;1512;51.486;6.610;2023-07-31T22:14:29;2.37;;;2.17;;
3004;SDS011;1512;51.486;6.610;2023-07-31T22:18:37;3.80;;;2.37;;
3004;SDS011;1512;51.486;6.610;2023-07-31T22:22:46;3.00;;;2.73;;
3004;SDS011;1512;51.486;6.610;2023-07-31T22:26:54;2.50;;;2.13;;
3004;SDS011;1512;51.486;6.610;2023-07-31T22:31:03;2.80;;;2.43;;
3004;SDS011;1512;51.486;6.610;2023-07-31T22:35:12;2.70;;;2.50;;
3004;SDS011;1512;51.486;6.610;2023-07-31T22:39:21;2.90;;;2.57;;
3004;SDS011;1512;51.486;6.610;2023-07-31T22:43:29;2.67;;;2.40;;
3004;SDS011;1512;51.486;6.610;2023-07-31T22:47:38;2.37;;;2.17;;
3004;SDS011;1512;51.486;6.610;2023-07-31T22:51:47;3.60;;;2.70;;
3004;SDS011;1512;51.486;6.610;2023-07-31T22:55:55;2.63;;;2.43;;
3004;SDS011;1512;51.486;6.610;2023-07-31T23:00:06;3.30;;;2.53;;
3004;SDS011;1512;51.486;6.610;2023-07-31T23:04:15;2.50;;;2.30;;
3004;SDS011;1512;51.486;6.610;2023-07-31T23:08:23;2.57;;;2.10;;
3004;SDS011;1512;51.486;6.610;2023-07-31T23:12:32;2.40;;;2.20;;
3004;SDS011;1512;51.486;6.610;2023-07-31T23:16:41;4.70;;;2.50;;
3004;SDS011;1512;51.486;6.610;2023-07-31T23:20:50;2.10;;;1.90;;
3004;SDS011;1512;51.486;6.610;2023-07-31T23:25:01;8.83;;;1.90;;
3004;SDS011;1512;51.486;6.610;2023-07-31T23:29:10;3.30;;;2.17;;
3004;SDS011;1512;51.486;6.610;2023-07-31T23:33:19;2.00;;;1.80;;
3004;SDS011;1512;51.486;6.610;2023-07-31T23:37:27;3.10;;;2.07;;
3004;SDS011;1512;51.486;6.610;2023-07-31T23:41:36;2.40;;;2.20;;
3004;SDS011;1512;51.486;6.610;2023-07-31T23:45:44;2.17;;;1.93;;
3004;SDS011;1512;51.486;6.610;2023-07-31T23:49:53;3.17;;;1.90;;
3004;SDS011;1512;51.486;6.610;2023-07-31T23:54:02;2.60;;;2.40;;
3004;SDS011;1512;51.486;6.610;2023-07-31T23:58:10;2.57;;;2.37;;
